Time;durP1;ratioP1;P1;durP2;ratioP2;P2;SDS_P1;SDS_P2;PMS_P1;PMS_P2;Temp;Humidity;BMP_temperature;BMP_pressure;BME280_temperature;BME280_humidity;BME280_pressure;Samples;Min_cycle;Max_cycle;Signal;HPM_P1;HPM_P2
2023/07/04 00:00:58;;;;;;;;;;;;;;;;;;5050917;28;2129;-58
2023/07/04 00:03:26;;;;;;;;;;;;;;;;;;5051107;28;2053;-58
2023/07/04 00:05:54;;;;;;;;;;;;;;;;;;5051154;28;1914;-54
2023/07/04 00:08:22;;;;;;;;;;;;;;;;;;5050607;28;2177;-58
2023/07/04 00:10:52;;;;;;;;;;;;;;;;;;5051124;28;2188;-58
2023/07/04 00:13:19;;;;;;;;;;;;;;;;;;5050773;28;2121;-57
2023/07/04 00:15:48;;;;;;;;;;;;;;;;;;5050551;28;1936;-57
2023/07/04 00:18:17;;;;;;;;;;;;;;;;;;5050505;28;2105;-57
2023/07/04 00:20:44;;;;;;;;;;;;;;;;;;5050687;28;1902;-58
2023/07/04 00:23:11;;;;;;;;;;;;;;;;;;5048980;28;2113;-58
2023/07/04 00:25:38;;;;;;;;;;;;;;;;;;5050799;28;2035;-57
2023/07/04 00:28:05;;;;;;;;;;;;;;;;;;5049281;28;2003;-48
2023/07/04 00:30:32;;;;;;;;;;;;;;;;;;5050473;28;2050;-48
2023/07/04 00:33:01;;;;;;;;;;;;;;;;;;5050909;28;2145;-57
2023/07/04 00:35:28;;;;;;;;;;;;;;;;;;5050382;28;1895;-58
2023/07/04 00:37:56;;;;;;;;;;;;;;;;;;5050289;28;2073;-57
2023/07/04 00:40:26;;;;;;;;;;;;;;;;;;5050001;28;1851;-58
2023/07/04 00:43:02;;;;;;;;;;;;;;;;;;5049245;28;1932;-57
2023/07/04 00:45:31;;;;;;;;;;;;;;;;;;5048686;28;2202;-57
2023/07/04 00:48:00;;;;;;;;;;;;;;;;;;5050302;28;2094;-56
2023/07/04 00:50:31;;;;;;;;;;;;;;;;;;5050117;28;2049;-54
2023/07/04 00:53:02;;;;;;;;;;;;;;;;;;5050211;28;2036;-57
2023/07/04 00:55:30;;;;;;;;;;;;;;;;;;5048672;28;2116;-58
2023/07/04 00:57:57;;;;;;;;;;;;;;;;;;5048679;28;2356;-58
2023/07/04 01:00:25;;;;;;;;;;;;;;;;;;5049389;28;2344;-57
2023/07/04 01:02:54;;;;;;;;;;;;;;;;;;5048936;28;1982;-57
2023/07/04 01:05:34;;;;;;;;;;;;;;;;;;5049717;28;2218;-57
2023/07/04 01:08:27;;;;;;;;;;;;;;;;;;5049489;28;2187;-50
2023/07/04 01:10:55;;;;;;;;;;;;;;;;;;5047549;28;2259;-58
2023/07/04 01:13:37;;;;;;;;;;;;;;;;;;5048391;28;2193;-57
2023/07/04 01:16:05;;;;;;;;;;;;;;;;;;5049440;28;1821;-57
2023/07/04 01:18:32;;;;;;;;;;;;;;;;;;5049576;28;2184;-56
2023/07/04 01:21:01;;;;;;;;;;;;;;;;;;5049649;28;1822;-58
2023/07/04 01:23:47;;;;;;;;;;;;;;;;;;5047774;28;1852;-56
2023/07/04 01:26:24;;;;;;;;;;;;;;;;;;5048056;28;1902;-57
2023/07/04 01:28:53;;;;;;;;;;;;;;;;;;5049644;28;2095;-57
2023/07/04 01:31:21;;;;;;;;;;;;;;;;;;5048767;28;2250;-58
2023/07/04 01:33:51;;;;;;;;;;;;;;;;;;5049484;28;1944;-57
2023/07/04 01:36:22;;;;;;;;;;;;;;;;;;5048919;28;1969;-57
2023/07/04 01:38:49;;;;;;;;;;;;;;;;;;5048919;28;2056;-52
2023/07/04 01:41:17;;;;;;;;;;;;;;;;;;5049052;28;2224;-58
2023/07/04 01:43:47;;;;;;;;;;;;;;;;;;5049431;28;2062;-57
2023/07/04 01:46:14;;;;;;;;;;;;;;;;;;5048359;28;1952;-57
2023/07/04 01:48:41;;;;;;;;;;;;;;;;;;5049179;28;1935;-57
2023/07/04 01:51:08;;;;;;;;;;;;;;;;;;5049146;28;2039;-53
2023/07/04 01:53:35;;;;;;;;;;;;;;;;;;5048584;28;2158;-55
2023/07/04 01:56:02;;;;;;;;;;;;;;;;;;5047667;28;1733;-54
2023/07/04 01:58:29;;;;;;;;;;;;;;;;;;5047428;28;1933;-57
2023/07/04 02:00:57;;;;;;;;;;;;;;;;;;5047012;28;2250;-56
2023/07/04 02:03:24;;;;;;;;;;;;;;;;;;5048724;28;2057;-57
2023/07/04 02:05:51;;;;;;;;;;;;;;;;;;5047603;28;2038;-57
2023/07/04 02:08:18;;;;;;;;;;;;;;;;;;5048522;28;1949;-53
2023/07/04 02:10:45;;;;;;;;;;;;;;;;;;5048915;28;1969;-58
2023/07/04 02:13:13;;;;;;;;;;;;;;;;;;5047146;28;2243;-57
2023/07/04 02:15:40;;;;;;;;;;;;;;;;;;5048381;28;1865;-57
2023/07/04 02:18:08;;;;;;;;;;;;;;;;;;5048401;28;2093;-57
2023/07/04 02:20:35;;;;;;;;;;;;;;;;;;5047514;28;2463;-57
2023/07/04 02:23:02;;;;;;;;;;;;;;;;;;5048731;28;2125;-49
2023/07/04 02:25:30;;;;;;;;;;;;;;;;;;5048322;28;2130;-58
2023/07/04 02:27:57;;;;;;;;;;;;;;;;;;5047448;28;2142;-53
2023/07/04 02:30:25;;;;;;;;;;;;;;;;;;5047958;28;2153;-56
2023/07/04 02:32:52;;;;;;;;;;;;;;;;;;5047297;28;1817;-52
2023/07/04 02:35:20;;;;;;;;;;;;;;;;;;5047101;28;1797;-50
2023/07/04 02:37:47;;;;;;;;;;;;;;;;;;5046459;28;2058;-56
2023/07/04 02:40:15;;;;;;;;;;;;;;;;;;5048059;28;2250;-56
2023/07/04 02:42:42;;;;;;;;;;;;;;;;;;5048482;28;2185;-52
2023/07/04 02:45:10;;;;;;;;;;;;;;;;;;5046652;28;2278;-57
2023/07/04 02:47:37;;;;;;;;;;;;;;;;;;5047216;28;1975;-58
2023/07/04 02:50:08;;;;;;;;;;;;;;;;;;5047757;28;2117;-56
2023/07/04 02:52:37;;;;;;;;;;;;;;;;;;5046863;28;1708;-57
2023/07/04 02:55:05;;;;;;;;;;;;;;;;;;5048150;28;2008;-54
2023/07/04 02:57:33;;;;;;;;;;;;;;;;;;5047042;28;2400;-49
2023/07/04 03:00:01;;;;;;;;;;;;;;;;;;5046928;28;2115;-47
2023/07/04 03:02:32;;;;;;;;;;;;;;;;;;5046483;28;2201;-57
2023/07/04 03:05:00;;;;;;;;;;;;;;;;;;5047330;28;2260;-56
2023/07/04 03:07:29;;;;;;;;;;;;;;;;;;5046374;28;1969;-54
2023/07/04 03:09:57;;;;;;;;;;;;;;;;;;5048017;28;1983;-49
2023/07/04 03:12:27;;;;;;;;;;;;;;;;;;5046968;28;2381;-51
2023/07/04 03:14:57;;;;;;;;;;;;;;;;;;5049522;28;2119;-53
2023/07/04 03:17:25;;;;;;;;;;;;;;;;;;5050651;28;2040;-51
2023/07/04 03:19:53;;;;;;;;;;;;;;;;;;5051915;28;2058;-56
2023/07/04 03:22:21;;;;;;;;;;;;;;;;;;5049929;28;2339;-57
2023/07/04 03:24:49;;;;;;;;;;;;;;;;;;5052032;28;2009;-53
2023/07/04 03:27:16;;;;;;;;;;;;;;;;;;5050864;28;1922;-56
2023/07/04 03:29:44;;;;;;;;;;;;;;;;;;5051612;28;2020;-57
2023/07/04 03:32:11;;;;;;;;;;;;;;;;;;5049926;28;2009;-54
2023/07/04 03:34:39;;;;;;;;;;;;;;;;;;5050488;28;2090;-54
2023/07/04 03:37:07;;;;;;;;;;;;;;;;;;5049716;28;1922;-46
2023/07/04 03:39:34;;;;;;;;;;;;;;;;;;5068492;28;1971;-46
2023/07/04 03:42:01;;;;;;;;;;;;;;;;;;5071322;28;2082;-53
2023/07/04 03:44:28;;;;;;;;;;;;;;;;;;5069704;28;2328;-52
2023/07/04 03:46:55;;;;;;;;;;;;;;;;;;5071290;28;1979;-48
2023/07/04 03:49:23;;;;;;;;;;;;;;;;;;5071335;28;2089;-47
2023/07/04 03:51:50;;;;;;;;;;;;;;;;;;5070956;28;1940;-48
2023/07/04 03:54:17;;;;;;;;;;;;;;;;;;5070039;28;2421;-56
2023/07/04 03:56:45;;;;;;;;;;;;;;;;;;5069840;28;1999;-57
2023/07/04 03:59:13;;;;;;;;;;;;;;;;;;5069928;28;2335;-51
2023/07/04 04:01:41;;;;;;;;;;;;;;;;;;5071031;28;1913;-51
2023/07/04 04:04:08;;;;;;;;;;;;;;;;;;5060010;28;2050;-49
2023/07/04 04:06:35;;;;;;;;;;;;;;;;;;5050701;28;2126;-47
2023/07/04 04:09:03;;;;;;;;;;;;;;;;;;5051288;28;1859;-47
2023/07/04 04:11:30;;;;;;;;;;;;;;;;;;5050884;28;2197;-49
2023/07/04 04:13:57;;;;;;;;;;;;;;;;;;5050571;28;2134;-48
2023/07/04 04:16:25;;;;;;;;;;;;;;;;;;5050342;28;2066;-46
2023/07/04 04:18:52;;;;;;;;;;;;;;;;;;5050903;28;1774;-49
2023/07/04 04:21:19;;;;;;;;;;;;;;;;;;5049156;28;1894;-51
2023/07/04 04:23:46;;;;;;;;;;;;;;;;;;5050825;28;1971;-49
2023/07/04 04:26:15;;;;;;;;;;;;;;;;;;5050148;28;2196;-47
2023/07/04 04:28:42;;;;;;;;;;;;;;;;;;5050315;28;2056;-55
2023/07/04 04:31:11;;;;;;;;;;;;;;;;;;5050333;28;2022;-51
2023/07/04 04:33:38;;;;;;;;;;;;;;;;;;5050850;28;2129;-57
2023/07/04 04:36:05;;;;;;;;;;;;;;;;;;5049916;28;2267;-46
2023/07/04 04:38:32;;;;;;;;;;;;;;;;;;5049367;28;2617;-55
2023/07/04 04:41:06;;;;;;;;;;;;;;;;;;5050558;28;2502;-51
2023/07/04 04:43:33;;;;;;;;;;;;;;;;;;5050005;28;2173;-57
2023/07/04 04:46:01;;;;;;;;;;;;;;;;;;5050612;28;1855;-50
2023/07/04 04:48:35;;;;;;;;;;;;;;;;;;5050247;28;1998;-45
2023/07/04 04:51:10;;;;;;;;;;;;;;;;;;5050178;28;1893;-46
2023/07/04 04:53:37;;;;;;;;;;;;;;;;;;5050258;28;1816;-52
2023/07/04 04:56:05;;;;;;;;;;;;;;;;;;5050133;28;2229;-54
2023/07/04 04:58:32;;;;;;;;;;;;;;;;;;5050007;28;1853;-46
2023/07/04 05:01:06;;;;;;;;;;;;;;;;;;5050355;28;2045;-50
2023/07/04 05:03:33;;;;;;;;;;;;;;;;;;5050211;28;1924;-54
2023/07/04 05:06:01;;;;;;;;;;;;;;;;;;5049811;28;2137;-52
2023/07/04 05:08:28;;;;;;;;;;;;;;;;;;5049816;28;2068;-56
2023/07/04 05:11:00;;;;;;;;;;;;;;;;;;5049809;28;1995;-52
2023/07/04 05:13:27;;;;;;;;;;;;;;;;;;5048166;28;1937;-48
2023/07/04 05:15:58;;;;;;;;;;;;;;;;;;5049855;28;2067;-50
2023/07/04 05:18:25;;;;;;;;;;;;;;;;;;5049322;28;2006;-49
2023/07/04 05:21:01;;;;;;;;;;;;;;;;;;5049635;28;2236;-53
2023/07/04 05:23:32;;;;;;;;;;;;;;;;;;5049128;28;1961;-52
2023/07/04 05:26:09;;;;;;;;;;;;;;;;;;5049952;28;1957;-56
2023/07/04 05:28:37;;;;;;;;;;;;;;;;;;5049165;28;2236;-46
2023/07/04 05:31:06;;;;;;;;;;;;;;;;;;5049647;28;1808;-51
2023/07/04 05:33:34;;;;;;;;;;;;;;;;;;5049689;28;1877;-56
2023/07/04 05:36:05;;;;;;;;;;;;;;;;;;5047101;28;1959;-54
2023/07/04 05:38:33;;;;;;;;;;;;;;;;;;5049481;28;1949;-50
2023/07/04 05:41:00;;;;;;;;;;;;;;;;;;5049614;28;2463;-51
2023/07/04 05:43:28;;;;;;;;;;;;;;;;;;5048771;28;1806;-56
2023/07/04 05:45:56;;;;;;;;;;;;;;;;;;5049343;28;1749;-53
2023/07/04 05:48:23;;;;;;;;;;;;;;;;;;5048976;28;2034;-51
2023/07/04 05:50:55;;;;;;;;;;;;;;;;;;5049041;28;2052;-54
2023/07/04 05:53:23;;;;;;;;;;;;;;;;;;5048976;28;2103;-50
2023/07/04 05:55:51;;;;;;;;;;;;;;;;;;5048962;28;1963;-48
2023/07/04 05:58:19;;;;;;;;;;;;;;;;;;5048726;28;2330;-47
2023/07/04 06:00:47;;;;;;;;;;;;;;;;;;5049015;28;2210;-49
2023/07/04 06:03:17;;;;;;;;;;;;;;;;;;5048454;28;2184;-48
2023/07/04 06:05:45;;;;;;;;;;;;;;;;;;5061948;28;1846;-55
2023/07/04 06:08:12;;;;;;;;;;;;;;;;;;5068189;28;1924;-56
2023/07/04 06:10:40;;;;;;;;;;;;;;;;;;5068179;28;2147;-52
2023/07/04 06:13:07;;;;;;;;;;;;;;;;;;5068770;28;1937;-49
2023/07/04 06:15:39;;;;;;;;;;;;;;;;;;5068867;28;1832;-49
2023/07/04 06:18:07;;;;;;;;;;;;;;;;;;5067949;28;1757;-47
2023/07/04 06:20:34;;;;;;;;;;;;;;;;;;5068910;28;2111;-55
2023/07/04 06:23:01;;;;;;;;;;;;;;;;;;5068587;28;1966;-53
2023/07/04 06:25:28;;;;;;;;;;;;;;;;;;5067748;28;1890;-49
2023/07/04 06:27:55;;;;;;;;;;;;;;;;;;5068685;28;1982;-55
2023/07/04 06:30:22;;;;;;;;;;;;;;;;;;5068286;28;2076;-57
2023/07/04 06:32:50;;;;;;;;;;;;;;;;;;5068458;28;1975;-57
2023/07/04 06:35:17;;;;;;;;;;;;;;;;;;5068469;28;1977;-47
2023/07/04 06:37:44;;;;;;;;;;;;;;;;;;5048932;28;1831;-53
2023/07/04 06:40:11;;;;;;;;;;;;;;;;;;5046828;28;2184;-47
2023/07/04 06:42:38;;;;;;;;;;;;;;;;;;5048367;28;2075;-56
2023/07/04 06:45:06;;;;;;;;;;;;;;;;;;5048245;28;2028;-53
2023/07/04 06:47:33;;;;;;;;;;;;;;;;;;5049584;28;1990;-56
2023/07/04 06:50:00;;;;;;;;;;;;;;;;;;5052386;28;2276;-57
2023/07/04 06:52:29;;;;;;;;;;;;;;;;;;5052048;28;1897;-55
2023/07/04 06:54:56;;;;;;;;;;;;;;;;;;5052708;28;2048;-50
2023/07/04 06:57:23;;;;;;;;;;;;;;;;;;5051559;28;2097;-55
2023/07/04 06:59:51;;;;;;;;;;;;;;;;;;5066501;28;2065;-57
2023/07/04 07:02:18;;;;;;;;;;;;;;;;;;5072153;28;2095;-53
2023/07/04 07:04:45;;;;;;;;;;;;;;;;;;5050215;28;1964;-49
2023/07/04 07:07:13;;;;;;;;;;;;;;;;;;5052267;28;1898;-55
2023/07/04 07:09:41;;;;;;;;;;;;;;;;;;5052056;28;2203;-52
2023/07/04 07:12:09;;;;;;;;;;;;;;;;;;5051432;28;2160;-46
2023/07/04 07:14:37;;;;;;;;;;;;;;;;;;5057302;28;2011;-50
2023/07/04 07:17:07;;;;;;;;;;;;;;;;;;5071020;28;2484;-48
2023/07/04 07:19:35;;;;;;;;;;;;;;;;;;5071496;28;2152;-58
2023/07/04 07:22:05;;;;;;;;;;;;;;;;;;5071129;28;2065;-49
2023/07/04 07:24:33;;;;;;;;;;;;;;;;;;5071494;28;1825;-49
2023/07/04 07:27:03;;;;;;;;;;;;;;;;;;5071483;28;1906;-57
2023/07/04 07:29:30;;;;;;;;;;;;;;;;;;5071850;28;2088;-51
2023/07/04 07:32:03;;;;;;;;;;;;;;;;;;5071508;28;1945;-56
2023/07/04 07:34:30;;;;;;;;;;;;;;;;;;5071412;28;2188;-57
2023/07/04 07:36:57;;;;;;;;;;;;;;;;;;5058913;28;2022;-55
2023/07/04 07:39:24;;;;;;;;;;;;;;;;;;5051603;28;1742;-55
2023/07/04 07:41:51;;;;;;;;;;;;;;;;;;5051730;28;1893;-57
2023/07/04 07:44:19;;;;;;;;;;;;;;;;;;5050839;28;2214;-55
2023/07/04 07:46:46;;;;;;;;;;;;;;;;;;5051515;28;2027;-58
2023/07/04 07:49:13;;;;;;;;;;;;;;;;;;5050850;28;2081;-56
2023/07/04 07:51:41;;;;;;;;;;;;;;;;;;5051619;28;2133;-58
2023/07/04 07:54:10;;;;;;;;;;;;;;;;;;5064993;28;1908;-56
2023/07/04 07:56:42;;;;;;;;;;;;;;;;;;5071249;28;2175;-55
2023/07/04 07:59:10;;;;;;;;;;;;;;;;;;5069981;28;1916;-46
2023/07/04 08:01:37;;;;;;;;;;;;;;;;;;5071349;28;2082;-48
2023/07/04 08:04:05;;;;;;;;;;;;;;;;;;5070615;28;2056;-51
2023/07/04 08:06:37;;;;;;;;;;;;;;;;;;5071442;28;1885;-51
2023/07/04 08:09:05;;;;;;;;;;;;;;;;;;5050006;28;2079;-47
2023/07/04 08:11:33;;;;;;;;;;;;;;;;;;5050864;28;2057;-57
2023/07/04 08:14:00;;;;;;;;;;;;;;;;;;5050841;28;1913;-49
2023/07/04 08:16:29;;;;;;;;;;;;;;;;;;5050600;28;1987;-49
2023/07/04 08:18:58;;;;;;;;;;;;;;;;;;5049453;28;1941;-56
2023/07/04 08:21:26;;;;;;;;;;;;;;;;;;5050746;28;2086;-58
2023/07/04 08:23:54;;;;;;;;;;;;;;;;;;5049035;28;2073;-46
2023/07/04 08:26:23;;;;;;;;;;;;;;;;;;5053538;28;2378;-52
2023/07/04 08:28:54;;;;;;;;;;;;;;;;;;5070129;28;2076;-46
2023/07/04 08:31:22;;;;;;;;;;;;;;;;;;5070021;28;1986;-49
2023/07/04 08:33:51;;;;;;;;;;;;;;;;;;5070129;28;2119;-50
2023/07/04 08:36:19;;;;;;;;;;;;;;;;;;5061231;28;2197;-49
2023/07/04 08:38:47;;;;;;;;;;;;;;;;;;5049610;28;2027;-51
2023/07/04 08:41:33;;;;;;;;;;;;;;;;;;5050021;28;2177;-51
2023/07/04 08:44:03;;;;;;;;;;;;;;;;;;5050220;28;2196;-56
2023/07/04 08:46:33;;;;;;;;;;;;;;;;;;5049225;28;2043;-55
2023/07/04 08:49:01;;;;;;;;;;;;;;;;;;5049498;28;2113;-50
2023/07/04 08:51:39;;;;;;;;;;;;;;;;;;5049966;28;1868;-49
2023/07/04 08:54:10;;;;;;;;;;;;;;;;;;5063044;28;2214;-45
2023/07/04 08:56:38;;;;;;;;;;;;;;;;;;5069923;28;1915;-47
2023/07/04 08:59:12;;;;;;;;;;;;;;;;;;5069581;28;2101;-47
2023/07/04 09:01:58;;;;;;;;;;;;;;;;;;5069024;28;1682;-48
2023/07/04 09:04:32;;;;;;;;;;;;;;;;;;5048274;28;1940;-55
2023/07/04 09:07:09;;;;;;;;;;;;;;;;;;5049812;28;1829;-50
2023/07/04 09:09:42;;;;;;;;;;;;;;;;;;5049197;28;2257;-51
2023/07/04 09:16:27;;;;;;;;;;;;;;;;;;5046015;28;1868;-59
2023/07/04 09:19:05;;;;;;;;;;;;;;;;;;5049225;28;1824;-62
2023/07/04 09:21:33;;;;;;;;;;;;;;;;;;5048505;28;2128;-64
2023/07/04 09:24:02;;;;;;;;;;;;;;;;;;5048974;28;1837;-61
2023/07/04 09:26:50;;;;;;;;;;;;;;;;;;5049834;28;2267;-60
2023/07/04 09:29:20;;;;;;;;;;;;;;;;;;5047865;28;1914;-59
2023/07/04 09:31:51;;;;;;;;;;;;;;;;;;5048900;28;1857;-62
2023/07/04 09:34:38;;;;;;;;;;;;;;;;;;5048950;28;1837;-63
2023/07/04 09:37:10;;;;;;;;;;;;;;;;;;5048925;28;2076;-66
2023/07/04 09:39:45;;;;;;;;;;;;;;;;;;5048429;28;1856;-59
2023/07/04 09:42:39;;;;;;;;;;;;;;;;;;5047805;28;1934;-62
2023/07/04 09:45:19;;;;;;;;;;;;;;;;;;5048749;28;1765;-59
2023/07/04 09:47:46;;;;;;;;;;;;;;;;;;5048808;28;1982;-62
2023/07/04 09:50:15;;;;;;;;;;;;;;;;;;5048567;28;2130;-63
2023/07/04 09:52:42;;;;;;;;;;;;;;;;;;5049392;28;1887;-62
2023/07/04 09:55:13;;;;;;;;;;;;;;;;;;5049349;28;2026;-59
2023/07/04 09:57:41;;;;;;;;;;;;;;;;;;5049557;28;1777;-62
2023/07/04 10:00:18;;;;;;;;;;;;;;;;;;5048769;28;1990;-63
2023/07/04 10:02:47;;;;;;;;;;;;;;;;;;5049711;28;2203;-62
2023/07/04 10:05:35;;;;;;;;;;;;;;;;;;5049271;28;1819;-59
2023/07/04 10:08:05;;;;;;;;;;;;;;;;;;5048933;28;2183;-63
2023/07/04 10:10:59;;;;;;;;;;;;;;;;;;5049290;28;2038;-59
2023/07/04 10:13:35;;;;;;;;;;;;;;;;;;5046948;28;2130;-68
2023/07/04 10:16:17;;;;;;;;;;;;;;;;;;5049078;28;2058;-59
2023/07/04 10:18:45;;;;;;;;;;;;;;;;;;5049110;28;2007;-59
2023/07/04 10:21:12;;;;;;;;;;;;;;;;;;5048844;28;2188;-58
2023/07/04 10:23:39;;;;;;;;;;;;;;;;;;5048280;28;2112;-59
2023/07/04 10:26:06;;;;;;;;;;;;;;;;;;5047592;28;1856;-61
2023/07/04 10:28:33;;;;;;;;;;;;;;;;;;5049091;28;2199;-60
2023/07/04 10:31:21;;;;;;;;;;;;;;;;;;5048728;28;2045;-60
2023/07/04 10:33:51;;;;;;;;;;;;;;;;;;5048799;28;1933;-59
2023/07/04 10:36:26;;;;;;;;;;;;;;;;;;5048546;28;2043;-59
2023/07/04 10:38:57;;;;;;;;;;;;;;;;;;5048775;28;1990;-62
2023/07/04 10:41:47;;;;;;;;;;;;;;;;;;5049047;28;1653;-59
2023/07/04 10:44:19;;;;;;;;;;;;;;;;;;5048469;28;1903;-62
2023/07/04 10:46:52;;;;;;;;;;;;;;;;;;5048260;28;1929;-57
2023/07/04 10:49:21;;;;;;;;;;;;;;;;;;5048764;28;2019;-62
2023/07/04 10:51:51;;;;;;;;;;;;;;;;;;5048774;28;2058;-62
2023/07/04 10:54:19;;;;;;;;;;;;;;;;;;5048814;28;2136;-62
2023/07/04 10:56:49;;;;;;;;;;;;;;;;;;5047562;28;1785;-61
2023/07/04 10:59:19;;;;;;;;;;;;;;;;;;5048101;28;2168;-58
2023/07/04 11:02:09;;;;;;;;;;;;;;;;;;5048586;28;2018;-58
2023/07/04 11:04:37;;;;;;;;;;;;;;;;;;5048609;28;1964;-58
2023/07/04 11:07:15;;;;;;;;;;;;;;;;;;5048034;28;2099;-58
2023/07/04 11:09:42;;;;;;;;;;;;;;;;;;5048425;28;1918;-60
2023/07/04 11:12:13;;;;;;;;;;;;;;;;;;5047972;28;2040;-58
2023/07/04 11:14:41;;;;;;;;;;;;;;;;;;5046874;28;2125;-60
2023/07/04 11:17:12;;;;;;;;;;;;;;;;;;5048555;28;2003;-59
2023/07/04 11:20:12;;;;;;;;;;;;;;;;;;5048220;28;2033;-61
2023/07/04 11:22:51;;;;;;;;;;;;;;;;;;5014721;28;2144;-62
2023/07/04 11:25:35;;;;;;;;;;;;;;;;;;5048059;28;1936;-61
2023/07/04 11:28:21;;;;;;;;;;;;;;;;;;5048022;28;2321;-60
2023/07/04 11:30:49;;;;;;;;;;;;;;;;;;5047582;28;2041;-61
2023/07/04 11:33:52;;;;;;;;;;;;;;;;;;5048014;28;1943;-60
2023/07/04 11:36:32;;;;;;;;;;;;;;;;;;5018504;28;1890;-60
2023/07/04 11:39:03;;;;;;;;;;;;;;;;;;5051599;28;2224;-62
2023/07/04 11:41:32;;;;;;;;;;;;;;;;;;5051643;28;1745;-61
2023/07/04 11:44:12;;;;;;;;;;;;;;;;;;5051093;28;2240;-62
2023/07/04 11:46:41;;;;;;;;;;;;;;;;;;5051351;28;1892;-61
2023/07/04 11:49:16;;;;;;;;;;;;;;;;;;5051518;28;1914;-59
2023/07/04 11:51:44;;;;;;;;;;;;;;;;;;5051104;28;2053;-61
2023/07/04 11:54:11;;;;;;;;;;;;;;;;;;5051362;28;1786;-61
2023/07/04 11:56:42;;;;;;;;;;;;;;;;;;5051638;28;2289;-62
2023/07/04 11:59:12;;;;;;;;;;;;;;;;;;5050847;28;1929;-60
2023/07/04 12:01:51;;;;;;;;;;;;;;;;;;5051334;28;1829;-65
2023/07/04 12:04:22;;;;;;;;;;;;;;;;;;5051118;28;1874;-61
2023/07/04 12:06:59;;;;;;;;;;;;;;;;;;5050825;28;1837;-61
2023/07/04 12:09:50;;;;;;;;;;;;;;;;;;5050960;28;2155;-61
2023/07/04 12:12:19;;;;;;;;;;;;;;;;;;5022736;28;1893;-62
2023/07/04 12:14:50;;;;;;;;;;;;;;;;;;5050979;28;2052;-63
2023/07/04 12:17:18;;;;;;;;;;;;;;;;;;5050377;28;2137;-63
2023/07/04 12:19:46;;;;;;;;;;;;;;;;;;5068084;28;1850;-62
2023/07/04 12:22:15;;;;;;;;;;;;;;;;;;5069214;28;2001;-63
2023/07/04 12:24:44;;;;;;;;;;;;;;;;;;5069289;28;1858;-61
2023/07/04 12:27:11;;;;;;;;;;;;;;;;;;5070091;28;2000;-60
2023/07/04 12:29:42;;;;;;;;;;;;;;;;;;5070284;28;1965;-63
2023/07/04 12:32:14;;;;;;;;;;;;;;;;;;5070384;28;1995;-62
2023/07/04 12:34:42;;;;;;;;;;;;;;;;;;5070617;28;1855;-62
2023/07/04 12:37:19;;;;;;;;;;;;;;;;;;5055238;28;1880;-62
2023/07/04 12:39:48;;;;;;;;;;;;;;;;;;5050921;28;1842;-60
2023/07/04 12:42:21;;;;;;;;;;;;;;;;;;5050432;28;2145;-61
2023/07/04 12:44:49;;;;;;;;;;;;;;;;;;5049258;28;1992;-62
2023/07/04 12:47:19;;;;;;;;;;;;;;;;;;5049031;28;1990;-62
2023/07/04 12:49:47;;;;;;;;;;;;;;;;;;5050376;28;1993;-61
2023/07/04 12:52:14;;;;;;;;;;;;;;;;;;5049756;28;2419;-63
2023/07/04 12:54:42;;;;;;;;;;;;;;;;;;5050539;28;1976;-61
2023/07/04 12:57:14;;;;;;;;;;;;;;;;;;5050354;28;2116;-62
2023/07/04 12:59:41;;;;;;;;;;;;;;;;;;5050085;28;2011;-62
2023/07/04 13:02:14;;;;;;;;;;;;;;;;;;5049974;28;2068;-61
2023/07/04 13:04:41;;;;;;;;;;;;;;;;;;5050309;28;2099;-63
2023/07/04 13:07:09;;;;;;;;;;;;;;;;;;5049391;28;1885;-62
2023/07/04 13:09:40;;;;;;;;;;;;;;;;;;5049881;28;1965;-61
2023/07/04 13:12:08;;;;;;;;;;;;;;;;;;5048357;28;1882;-56
2023/07/04 13:14:36;;;;;;;;;;;;;;;;;;5049869;28;2106;-58
2023/07/04 13:17:07;;;;;;;;;;;;;;;;;;5050008;28;1872;-63
2023/07/04 13:19:35;;;;;;;;;;;;;;;;;;5049948;28;1930;-62
2023/07/04 13:22:13;;;;;;;;;;;;;;;;;;5049619;28;2196;-61
2023/07/04 13:24:41;;;;;;;;;;;;;;;;;;5049680;28;1961;-61
2023/07/04 13:27:25;;;;;;;;;;;;;;;;;;5049307;28;2072;-63
2023/07/04 13:29:52;;;;;;;;;;;;;;;;;;5049630;28;1981;-56
2023/07/04 13:32:40;;;;;;;;;;;;;;;;;;5049707;28;1877;-59
2023/07/04 13:35:20;;;;;;;;;;;;;;;;;;5048974;28;1945;-56
2023/07/04 13:37:48;;;;;;;;;;;;;;;;;;5049367;28;2097;-60
2023/07/04 13:40:19;;;;;;;;;;;;;;;;;;5048941;28;2054;-60
2023/07/04 13:43:05;;;;;;;;;;;;;;;;;;5049515;28;1861;-61
2023/07/04 13:45:37;;;;;;;;;;;;;;;;;;5048363;28;1807;-61
2023/07/04 13:48:06;;;;;;;;;;;;;;;;;;5049392;28;2110;-62
2023/07/04 13:50:34;;;;;;;;;;;;;;;;;;5049304;28;2004;-58
2023/07/04 13:53:04;;;;;;;;;;;;;;;;;;5049200;28;1888;-62
2023/07/04 13:55:40;;;;;;;;;;;;;;;;;;5049301;28;2000;-63
2023/07/04 13:58:07;;;;;;;;;;;;;;;;;;5047966;28;2042;-54
2023/07/04 14:00:34;;;;;;;;;;;;;;;;;;5049379;28;1998;-58
2023/07/04 14:03:22;;;;;;;;;;;;;;;;;;5048783;28;2035;-61
2023/07/04 14:05:52;;;;;;;;;;;;;;;;;;5049088;28;2225;-60
2023/07/04 14:08:24;;;;;;;;;;;;;;;;;;5048521;28;1875;-60
2023/07/04 14:11:02;;;;;;;;;;;;;;;;;;5048168;28;2061;-62
2023/07/04 14:13:30;;;;;;;;;;;;;;;;;;5048270;28;1767;-58
2023/07/04 14:15:58;;;;;;;;;;;;;;;;;;5049095;28;2064;-58
2023/07/04 14:18:27;;;;;;;;;;;;;;;;;;5048887;28;1883;-59
2023/07/04 14:20:58;;;;;;;;;;;;;;;;;;5047301;28;1979;-58
2023/07/04 14:23:31;;;;;;;;;;;;;;;;;;5048800;28;1998;-62
2023/07/04 14:25:58;;;;;;;;;;;;;;;;;;5048646;28;2255;-59
2023/07/04 14:28:26;;;;;;;;;;;;;;;;;;5048044;28;2084;-62
2023/07/04 14:30:57;;;;;;;;;;;;;;;;;;5048746;28;1914;-61
2023/07/04 14:33:25;;;;;;;;;;;;;;;;;;5048466;28;2034;-62
2023/07/04 14:35:52;;;;;;;;;;;;;;;;;;5048456;28;2219;-62
2023/07/04 14:38:19;;;;;;;;;;;;;;;;;;5048098;28;2239;-63
2023/07/04 14:40:46;;;;;;;;;;;;;;;;;;5048845;28;1828;-63
2023/07/04 14:43:16;;;;;;;;;;;;;;;;;;5048136;28;1901;-61
2023/07/04 14:45:43;;;;;;;;;;;;;;;;;;5048668;28;2027;-61
2023/07/04 14:48:11;;;;;;;;;;;;;;;;;;5048249;28;2045;-59
2023/07/04 14:50:38;;;;;;;;;;;;;;;;;;5047605;28;2107;-58
2023/07/04 14:53:05;;;;;;;;;;;;;;;;;;5048766;28;2025;-61
2023/07/04 14:55:32;;;;;;;;;;;;;;;;;;5048033;28;2153;-55
2023/07/04 14:57:59;;;;;;;;;;;;;;;;;;5048019;28;2271;-61
2023/07/04 15:00:36;;;;;;;;;;;;;;;;;;5048336;28;2145;-58
2023/07/04 15:03:03;;;;;;;;;;;;;;;;;;5048346;28;2215;-59
2023/07/04 15:05:30;;;;;;;;;;;;;;;;;;5048081;28;2046;-61
2023/07/04 15:07:58;;;;;;;;;;;;;;;;;;5048393;28;2216;-60
2023/07/04 15:10:25;;;;;;;;;;;;;;;;;;5050608;28;1915;-61
2023/07/04 15:12:53;;;;;;;;;;;;;;;;;;5052086;28;1683;-58
2023/07/04 15:15:21;;;;;;;;;;;;;;;;;;5050584;28;2181;-62
2023/07/04 15:17:49;;;;;;;;;;;;;;;;;;5052208;28;2045;-61
2023/07/04 15:20:18;;;;;;;;;;;;;;;;;;5051609;28;2235;-60
2023/07/04 15:22:46;;;;;;;;;;;;;;;;;;5052038;28;2081;-60
2023/07/04 15:25:13;;;;;;;;;;;;;;;;;;5049210;28;2587;-61
2023/07/04 15:27:41;;;;;;;;;;;;;;;;;;5051783;28;1766;-61
2023/07/04 15:30:08;;;;;;;;;;;;;;;;;;5051482;28;1914;-57
2023/07/04 15:32:36;;;;;;;;;;;;;;;;;;5052151;28;1868;-60
2023/07/04 15:35:03;;;;;;;;;;;;;;;;;;5051774;28;1925;-62
2023/07/04 15:37:31;;;;;;;;;;;;;;;;;;5051198;28;2431;-62
2023/07/04 15:40:01;;;;;;;;;;;;;;;;;;5050705;28;2134;-58
2023/07/04 15:42:28;;;;;;;;;;;;;;;;;;5051120;28;2152;-60
2023/07/04 15:44:56;;;;;;;;;;;;;;;;;;5051609;28;1922;-60
2023/07/04 15:47:23;;;;;;;;;;;;;;;;;;5051609;28;2079;-60
2023/07/04 15:49:51;;;;;;;;;;;;;;;;;;5050841;28;1980;-60
2023/07/04 15:52:18;;;;;;;;;;;;;;;;;;5051399;28;1797;-60
2023/07/04 15:54:45;;;;;;;;;;;;;;;;;;5051120;28;2005;-61
2023/07/04 16:08:53;;;;;;;;;;;;;;;;;;5151452;27;1743;-62
2023/07/04 16:11:21;;;;;;;;;;;;;;;;;;5140726;27;2055;-62
2023/07/04 16:13:49;;;;;;;;;;;;;;;;;;5141869;27;2009;-58
2023/07/04 16:16:17;;;;;;;;;;;;;;;;;;5139180;27;1975;-62
2023/07/04 16:18:44;;;;;;;;;;;;;;;;;;5145303;27;1874;-59
2023/07/04 16:21:12;;;;;;;;;;;;;;;;;;5149705;27;2025;-61
2023/07/04 16:23:40;;;;;;;;;;;;;;;;;;5146199;27;2005;-59
2023/07/04 16:26:08;;;;;;;;;;;;;;;;;;5143404;27;2037;-57
2023/07/04 16:28:35;;;;;;;;;;;;;;;;;;5143008;27;2059;-60
2023/07/04 16:31:04;;;;;;;;;;;;;;;;;;5141835;27;1798;-60
2023/07/04 16:33:33;;;;;;;;;;;;;;;;;;5123183;27;1933;-60
2023/07/04 16:36:01;;;;;;;;;;;;;;;;;;5137027;27;1880;-59
2023/07/04 16:38:28;;;;;;;;;;;;;;;;;;5137053;27;2032;-60
2023/07/04 16:40:55;;;;;;;;;;;;;;;;;;5145268;27;2023;-62
2023/07/04 16:43:23;;;;;;;;;;;;;;;;;;5147998;27;2057;-59
2023/07/04 16:45:51;;;;;;;;;;;;;;;;;;5144147;27;1921;-61
2023/07/04 16:48:18;;;;;;;;;;;;;;;;;;5145379;27;2050;-61
2023/07/04 16:50:46;;;;;;;;;;;;;;;;;;5142309;27;1917;-60
2023/07/04 16:53:13;;;;;;;;;;;;;;;;;;5143928;27;1981;-58
2023/07/04 16:55:40;;;;;;;;;;;;;;;;;;5137767;27;2143;-58
2023/07/04 16:58:08;;;;;;;;;;;;;;;;;;5138349;27;1909;-61
2023/07/04 17:00:36;;;;;;;;;;;;;;;;;;5148742;27;2214;-62
2023/07/04 17:03:03;;;;;;;;;;;;;;;;;;5148208;27;1793;-62
2023/07/04 17:05:31;;;;;;;;;;;;;;;;;;5145072;27;1762;-55
2023/07/04 17:07:58;;;;;;;;;;;;;;;;;;5141239;27;2271;-59
2023/07/04 17:10:26;;;;;;;;;;;;;;;;;;5129857;27;1859;-58
2023/07/04 17:12:55;;;;;;;;;;;;;;;;;;5128504;27;2303;-60
2023/07/04 17:15:23;;;;;;;;;;;;;;;;;;5122650;27;2011;-59
2023/07/04 17:17:50;;;;;;;;;;;;;;;;;;5124714;27;1913;-61
2023/07/04 17:20:18;;;;;;;;;;;;;;;;;;5134298;27;1944;-59
2023/07/04 17:22:45;;;;;;;;;;;;;;;;;;5134745;27;1977;-59
2023/07/04 17:25:12;;;;;;;;;;;;;;;;;;5131898;27;1927;-59
2023/07/04 17:27:40;;;;;;;;;;;;;;;;;;5130240;27;1790;-58
2023/07/04 17:30:08;;;;;;;;;;;;;;;;;;5128267;27;1951;-59
2023/07/04 17:32:35;;;;;;;;;;;;;;;;;;5129093;27;2015;-60
2023/07/04 17:35:04;;;;;;;;;;;;;;;;;;5126268;27;1816;-59
2023/07/04 17:37:32;;;;;;;;;;;;;;;;;;5123776;27;2158;-58